createdAt,value
2024-05-09T00:01:38.527Z,66.9
2024-05-09T00:04:50.684Z,67.2
2024-05-09T00:08:02.822Z,67.7
2024-05-09T00:11:14.977Z,67.7
2024-05-09T00:14:27.137Z,67.8
2024-05-09T00:17:39.275Z,67.5
2024-05-09T00:20:50.455Z,66.8
2024-05-09T00:24:02.607Z,66.5
2024-05-09T00:27:14.762Z,66
2024-05-09T00:30:26.908Z,65.9
2024-05-09T00:33:39.053Z,66.3
2024-05-09T00:36:51.213Z,66.7
2024-05-09T00:40:03.365Z,67.1
2024-05-09T00:43:15.516Z,66.9
2024-05-09T00:46:27.671Z,67
2024-05-09T00:49:39.818Z,66.9
2024-05-09T00:52:51.964Z,66.6
2024-05-09T00:56:04.114Z,66.5
2024-05-09T00:59:16.271Z,66.3
2024-05-09T01:02:27.426Z,66.3
2024-05-09T01:05:39.589Z,66.3
2024-05-09T01:08:51.722Z,66.6
2024-05-09T01:12:03.885Z,67
2024-05-09T01:15:16.026Z,66.6
2024-05-09T01:18:28.183Z,66.6
2024-05-09T01:21:40.345Z,66.9
2024-05-09T01:24:52.480Z,67.2
2024-05-09T01:28:04.626Z,67.8
2024-05-09T01:31:16.794Z,67.1
2024-05-09T01:34:28.941Z,67.3
2024-05-09T01:37:41.089Z,67.4
2024-05-09T01:40:53.233Z,67.2
2024-05-09T01:44:04.414Z,66.9
2024-05-09T01:47:16.550Z,67.4
2024-05-09T01:50:28.712Z,67.6
2024-05-09T01:53:40.857Z,67.9
2024-05-09T01:56:53.017Z,67.7
2024-05-09T02:00:05.148Z,68.1
2024-05-09T02:03:17.316Z,68.3
2024-05-09T02:06:29.463Z,68.1
2024-05-09T02:09:41.608Z,68.4
2024-05-09T02:12:53.758Z,69
2024-05-09T02:16:05.904Z,69
2024-05-09T02:19:18.063Z,69.4
2024-05-09T02:22:30.221Z,69.8
2024-05-09T02:25:41.386Z,69.7
2024-05-09T02:28:53.532Z,70.1
2024-05-09T02:32:05.683Z,70.2
2024-05-09T02:35:17.840Z,70.3
2024-05-09T02:38:29.989Z,70.5
2024-05-09T02:41:42.128Z,70.7
2024-05-09T02:44:54.285Z,70.8
2024-05-09T02:48:06.433Z,70.9
2024-05-09T02:51:18.572Z,71.2
2024-05-09T02:54:30.737Z,71.6
2024-05-09T02:57:42.964Z,71.5
2024-05-09T03:00:55.111Z,71.6
2024-05-09T03:04:07.254Z,71.7
2024-05-09T03:07:18.434Z,72.5
2024-05-09T03:10:30.578Z,72.5
2024-05-09T03:13:42.733Z,72.6
2024-05-09T03:16:54.890Z,72.6
2024-05-09T03:20:07.024Z,72.9
2024-05-09T03:23:19.179Z,73
2024-05-09T03:26:31.328Z,73.1
2024-05-09T03:29:43.480Z,73.2
2024-05-09T03:32:55.641Z,73.3
2024-05-09T03:36:07.777Z,73.6
2024-05-09T03:39:19.939Z,73.9
2024-05-09T03:42:32.079Z,74.2
2024-05-09T03:45:44.233Z,74
2024-05-09T03:48:55.408Z,73.8
2024-05-09T03:52:07.557Z,74.4
2024-05-09T03:55:19.705Z,74.9
2024-05-09T03:58:31.853Z,74.9
2024-05-09T04:01:44.003Z,74.8
2024-05-09T04:04:56.157Z,75.1
2024-05-09T04:08:08.307Z,75
2024-05-09T04:11:20.446Z,75.2
2024-05-09T04:14:32.596Z,74.9
2024-05-09T04:17:44.761Z,74.9
2024-05-09T04:20:56.915Z,74.5
2024-05-09T04:24:09.046Z,74.8
2024-05-09T04:27:21.203Z,75.1
2024-05-09T04:30:32.377Z,74.7
2024-05-09T04:33:44.517Z,75
2024-05-09T04:36:56.678Z,74.9
2024-05-09T04:40:08.819Z,74.8
2024-05-09T04:43:20.982Z,75.2
2024-05-09T04:46:33.133Z,74.8
2024-05-09T04:49:45.274Z,74.7
2024-05-09T04:52:57.421Z,75.4
2024-05-09T04:56:09.579Z,75.2
2024-05-09T04:59:21.724Z,75.1
2024-05-09T05:02:33.887Z,75.1
2024-05-09T05:05:46.020Z,74.8
2024-05-09T05:08:58.176Z,74.4
2024-05-09T05:12:09.353Z,74.6
2024-05-09T05:15:21.499Z,74.9
2024-05-09T05:18:33.641Z,75.2
2024-05-09T05:21:45.797Z,75.3
2024-05-09T05:24:57.956Z,75.1
2024-05-09T05:28:10.106Z,74.6
2024-05-09T05:31:22.241Z,74.7
2024-05-09T05:34:34.388Z,74.8
2024-05-09T05:37:46.554Z,74.8
2024-05-09T05:40:58.707Z,75
2024-05-09T05:44:10.844Z,74.9
2024-05-09T05:47:22.999Z,75
2024-05-09T05:53:47.313Z,74.1
2024-05-09T05:56:58.482Z,73.8
2024-05-09T06:00:10.000Z,73.2
2024-05-09T06:03:22.783Z,72.8
2024-05-09T06:06:34.929Z,73.4
2024-05-09T06:09:47.085Z,73.5
2024-05-09T06:12:59.241Z,73.5
2024-05-09T06:16:11.385Z,72.5
2024-05-09T06:19:23.528Z,72.4
2024-05-09T06:22:35.693Z,73.8
2024-05-09T06:25:47.836Z,73
2024-05-09T06:28:59.998Z,72.5
2024-05-09T06:32:12.137Z,72.6
2024-05-09T06:35:24.286Z,72.4
2024-05-09T06:38:35.455Z,70.9
2024-05-09T06:41:47.620Z,71.6
2024-05-09T06:44:59.758Z,71.9
2024-05-09T06:48:11.925Z,72.2
2024-05-09T06:51:24.067Z,71.3
2024-05-09T06:54:36.212Z,71.7
2024-05-09T06:57:48.370Z,72.1
2024-05-09T07:01:00.527Z,71.2
2024-05-09T07:04:12.674Z,71.3
2024-05-09T07:07:24.817Z,70
2024-05-09T07:10:36.985Z,70
2024-05-09T07:13:49.134Z,68.4
2024-05-09T07:17:01.291Z,69.5
2024-05-09T07:20:12.454Z,70.2
2024-05-09T07:23:24.594Z,70.5
2024-05-09T07:26:36.762Z,71.9
2024-05-09T07:29:48.913Z,73.2
2024-05-09T07:33:01.066Z,69
2024-05-09T07:36:13.201Z,69.4
2024-05-09T07:39:25.365Z,69.3
2024-05-09T07:42:37.511Z,68.6
2024-05-09T07:45:49.669Z,68.7
2024-05-09T07:49:01.810Z,67.8
2024-05-09T07:52:13.962Z,69.8
2024-05-09T07:55:26.123Z,66.5
2024-05-09T07:58:38.280Z,67.1
2024-05-09T08:01:49.437Z,66.2
2024-05-09T08:05:01.585Z,66.9
2024-05-09T08:08:13.750Z,64.6
2024-05-09T08:11:25.898Z,64.5
2024-05-09T08:14:38.038Z,66.8
2024-05-09T08:17:50.207Z,64.6
2024-05-09T08:21:02.362Z,66.9
2024-05-09T08:24:14.505Z,68
2024-05-09T08:27:26.664Z,65
2024-05-09T08:30:38.818Z,65
2024-05-09T08:33:50.950Z,63.2
2024-05-09T08:37:03.118Z,65
2024-05-09T08:40:15.268Z,62.9
2024-05-09T08:43:26.422Z,62.7
2024-05-09T08:46:38.584Z,64.1
2024-05-09T08:49:50.746Z,63.2
2024-05-09T08:53:02.881Z,62.3
2024-05-09T08:56:15.045Z,62.4
2024-05-09T08:59:27.181Z,65.8
2024-05-09T09:02:39.340Z,63.3
2024-05-09T09:05:51.494Z,59.9
2024-05-09T09:09:03.658Z,58.8
2024-05-09T09:12:15.800Z,60.9
2024-05-09T09:15:27.950Z,60.3
2024-05-09T09:18:40.104Z,54.8
2024-05-09T09:21:52.247Z,62.2
2024-05-09T09:25:03.434Z,62.2
2024-05-09T09:28:15.574Z,61.5
2024-05-09T09:31:27.731Z,53.4
2024-05-09T09:34:39.892Z,55.5
2024-05-09T09:37:52.034Z,55.2
2024-05-09T09:41:04.191Z,58
2024-05-09T09:44:16.349Z,54.7
2024-05-09T09:47:28.493Z,54.5
2024-05-09T09:50:40.638Z,55.1
2024-05-09T09:53:52.787Z,57.7
2024-05-09T09:57:04.943Z,58.7
2024-05-09T10:00:17.092Z,51.5
2024-05-09T10:03:29.249Z,49.4
2024-05-09T10:06:40.413Z,51.7
2024-05-09T10:09:52.574Z,52.3
2024-05-09T10:13:04.731Z,52.8
2024-05-09T10:16:16.884Z,52.4
2024-05-09T10:19:29.022Z,52.5
2024-05-09T10:22:41.175Z,55.2
2024-05-09T10:25:53.338Z,58.9
2024-05-09T10:32:17.644Z,56.7
2024-05-09T10:35:29.795Z,51.5
2024-05-09T10:38:41.947Z,52.1
2024-05-09T10:41:54.106Z,51.4
2024-05-09T10:45:06.249Z,49
2024-05-09T10:48:17.420Z,47.7
2024-05-09T10:51:29.571Z,49.2
2024-05-09T10:54:41.710Z,49.8
2024-05-09T10:57:53.859Z,50.4
2024-05-09T11:01:06.016Z,49.9
2024-05-09T11:04:17.189Z,50
2024-05-09T11:07:29.337Z,49
2024-05-09T11:10:41.494Z,50.5
2024-05-09T11:13:53.645Z,47.2
2024-05-09T11:17:05.802Z,47.1
2024-05-09T11:20:17.953Z,48.7
2024-05-09T11:23:30.095Z,48.1
2024-05-09T11:26:42.243Z,48
2024-05-09T11:29:54.403Z,49
2024-05-09T11:33:06.544Z,47.7
2024-05-09T11:36:18.708Z,47.8
2024-05-09T11:39:30.861Z,49.7
2024-05-09T11:42:42.998Z,50
2024-05-09T11:45:54.176Z,50.3
2024-05-09T11:49:06.314Z,47.9
2024-05-09T11:52:18.481Z,46.9
2024-05-09T11:55:30.626Z,47.6
2024-05-09T11:58:42.770Z,45.8
2024-05-09T12:01:54.917Z,46.9
2024-05-09T12:05:07.068Z,45
2024-05-09T12:08:19.224Z,45.3
2024-05-09T12:11:31.381Z,46.4
2024-05-09T12:14:43.527Z,46.3
2024-05-09T12:17:55.681Z,46.2
2024-05-09T12:21:07.832Z,45.6
2024-05-09T12:24:19.995Z,45.9
2024-05-09T12:27:31.163Z,46
2024-05-09T12:30:43.307Z,44.3
2024-05-09T12:33:55.461Z,45.8
2024-05-09T12:37:07.609Z,45.4
2024-05-09T12:40:19.748Z,45.3
2024-05-09T12:43:31.900Z,42.6
2024-05-09T12:46:44.072Z,45.1
2024-05-09T12:49:56.209Z,45
2024-05-09T12:53:08.365Z,44
2024-05-09T12:56:20.513Z,45.3
2024-05-09T12:59:32.664Z,45.3
2024-05-09T13:02:44.818Z,44
2024-05-09T13:05:56.960Z,45
2024-05-09T13:09:08.125Z,43.1
2024-05-09T13:12:20.281Z,43.1
2024-05-09T13:15:32.433Z,43.9
2024-05-09T13:18:44.584Z,42.3
2024-05-09T13:21:56.742Z,43
2024-05-09T13:25:08.896Z,43.9
2024-05-09T13:28:21.036Z,45.4
2024-05-09T13:31:33.204Z,43.1
2024-05-09T13:34:45.341Z,42.3
2024-05-09T13:37:57.503Z,42.1
2024-05-09T13:41:09.650Z,40.7
2024-05-09T13:44:21.811Z,42.1
2024-05-09T13:47:33.963Z,40.5
2024-05-09T13:50:45.130Z,41.5
2024-05-09T13:53:57.265Z,39.8
2024-05-09T13:57:09.420Z,39.7
2024-05-09T14:00:21.573Z,40.5
2024-05-09T14:03:33.722Z,42.1
2024-05-09T14:09:58.023Z,41.1
2024-05-09T14:13:10.173Z,40.9
2024-05-09T14:16:22.345Z,42.2
2024-05-09T14:19:34.474Z,42.4
2024-05-09T14:22:46.645Z,40.4
2024-05-09T14:25:58.785Z,42
2024-05-09T14:29:10.945Z,41.6
2024-05-09T14:32:22.114Z,41.1
2024-05-09T14:35:34.251Z,40.7
2024-05-09T14:38:46.400Z,41.4
2024-05-09T14:41:58.564Z,41.4
2024-05-09T14:45:10.720Z,41.9
2024-05-09T14:48:22.855Z,41.6
2024-05-09T14:51:35.009Z,42.6
2024-05-09T14:54:47.177Z,41.9
2024-05-09T14:57:59.311Z,42.5
2024-05-09T15:01:11.482Z,41.3
2024-05-09T15:04:23.624Z,41.4
2024-05-09T15:07:35.781Z,41.7
2024-05-09T15:10:47.926Z,41.8
2024-05-09T15:13:59.096Z,40.7
2024-05-09T15:17:11.239Z,40.7
2024-05-09T15:20:23.399Z,41.5
2024-05-09T15:23:35.537Z,41.3
2024-05-09T15:26:47.693Z,41.9
2024-05-09T15:29:59.841Z,41.7
2024-05-09T15:33:11.985Z,41.7
2024-05-09T15:36:24.138Z,41.8
2024-05-09T15:39:36.278Z,42.6
2024-05-09T15:42:48.434Z,41
2024-05-09T15:46:00.598Z,42
2024-05-09T15:49:12.737Z,41.6
2024-05-09T15:52:24.898Z,41.3
2024-05-09T15:55:36.065Z,41.2
2024-05-09T15:58:48.202Z,42.1
2024-05-09T16:02:00.346Z,41.4
2024-05-09T16:05:12.513Z,41.8
2024-05-09T16:08:24.650Z,42
2024-05-09T16:11:36.805Z,41.5
2024-05-09T16:14:48.964Z,41.6
2024-05-09T16:18:01.117Z,42.5
2024-05-09T16:21:13.258Z,43
2024-05-09T16:24:25.410Z,42.4
2024-05-09T16:27:37.560Z,42
2024-05-09T16:30:49.713Z,42.3
2024-05-09T16:34:01.857Z,42.7
2024-05-09T16:37:13.037Z,43
2024-05-09T16:40:25.182Z,42.4
2024-05-09T16:43:37.325Z,42.5
2024-05-09T16:46:49.482Z,43.2
2024-05-09T16:50:01.622Z,43
2024-05-09T16:53:13.777Z,42.9
2024-05-09T16:56:25.934Z,43.1
2024-05-09T16:59:38.075Z,43.2
2024-05-09T17:02:50.226Z,44.1
2024-05-09T17:06:02.380Z,42.9
2024-05-09T17:09:14.526Z,43
2024-05-09T17:12:26.678Z,43.2
2024-05-09T17:15:38.841Z,44
2024-05-09T17:18:50.000Z,44.4
2024-05-09T17:22:02.146Z,45
2024-05-09T17:25:14.302Z,44.5
2024-05-09T17:28:26.442Z,43.8
2024-05-09T17:31:38.611Z,44.2
2024-05-09T17:34:50.757Z,43.9
2024-05-09T17:38:02.897Z,44.2
2024-05-09T17:41:15.058Z,43.8
2024-05-09T17:44:27.207Z,44.4
2024-05-09T17:47:39.349Z,44.8
2024-05-09T17:50:51.508Z,45.2
2024-05-09T17:54:03.655Z,45.3
2024-05-09T17:57:15.790Z,45.6
2024-05-09T18:00:26.966Z,45.6
2024-05-09T18:03:39.126Z,46.1
2024-05-09T18:06:51.276Z,46.5
2024-05-09T18:10:03.426Z,46.5
2024-05-09T18:13:15.559Z,46.8
2024-05-09T18:16:27.728Z,46.5
2024-05-09T18:19:39.864Z,46.8
2024-05-09T18:22:52.016Z,46.9
2024-05-09T18:26:04.174Z,47.3
2024-05-09T18:29:16.313Z,47.5
2024-05-09T18:32:28.474Z,48.1
2024-05-09T18:35:40.611Z,48.7
2024-05-09T18:38:52.760Z,49.3
2024-05-09T18:42:03.938Z,50.7
2024-05-09T18:45:16.094Z,50.4
2024-05-09T18:48:28.237Z,50.3
2024-05-09T18:51:40.395Z,50.9
2024-05-09T18:54:52.530Z,51.3
2024-05-09T18:58:04.675Z,52.1
2024-05-09T19:01:16.826Z,52.3
2024-05-09T19:04:28.994Z,53
2024-05-09T19:07:41.142Z,53.9
2024-05-09T19:10:53.278Z,54.7
2024-05-09T19:14:05.441Z,55.1
2024-05-09T19:17:17.591Z,55.5
2024-05-09T19:20:29.725Z,55.7
2024-05-09T19:23:40.909Z,56.1
2024-05-09T19:26:53.041Z,56.3
2024-05-09T19:30:05.201Z,56.5
2024-05-09T19:33:17.354Z,57
2024-05-09T19:36:29.503Z,57.1
2024-05-09T19:39:41.641Z,58.1
2024-05-09T19:42:53.792Z,58.1
2024-05-09T19:46:05.949Z,58.1
2024-05-09T19:49:18.096Z,58.4
2024-05-09T19:52:30.258Z,58.6
2024-05-09T19:55:42.391Z,59.1
2024-05-09T19:58:54.542Z,59.2
2024-05-09T20:02:06.691Z,58.8
2024-05-09T20:05:17.875Z,59.1
2024-05-09T20:08:30.007Z,59.4
2024-05-09T20:11:42.158Z,59.2
2024-05-09T20:14:54.309Z,59.7
2024-05-09T20:18:06.460Z,59.8
2024-05-09T20:21:18.624Z,59.6
2024-05-09T20:24:30.765Z,59.8
2024-05-09T20:27:42.906Z,59.6
2024-05-09T20:30:55.054Z,59.4
2024-05-09T20:34:07.203Z,59.5
2024-05-09T20:37:19.372Z,59.4
2024-05-09T20:40:31.521Z,59.3
2024-05-09T20:43:43.659Z,59.1
2024-05-09T20:46:54.832Z,58.9
2024-05-09T20:50:06.980Z,58.6
2024-05-09T20:53:19.119Z,59
2024-05-09T20:56:31.279Z,58.6
2024-05-09T20:59:43.425Z,58.6
2024-05-09T21:02:55.585Z,58.8
2024-05-09T21:06:07.736Z,59.4
2024-05-09T21:09:19.876Z,59.4
2024-05-09T21:12:32.024Z,59.8
2024-05-09T21:15:44.182Z,60
2024-05-09T21:18:56.323Z,60
2024-05-09T21:22:08.481Z,60.3
2024-05-09T21:25:20.633Z,60.5
2024-05-09T21:28:31.786Z,60.5
2024-05-09T21:31:43.943Z,60.6
2024-05-09T21:34:56.099Z,60.8
2024-05-09T21:38:08.240Z,60.8
2024-05-09T21:41:20.399Z,60.7
2024-05-09T21:44:32.540Z,60.7
2024-05-09T21:47:43.703Z,61
2024-05-09T21:50:55.858Z,61
2024-05-09T21:54:08.009Z,60.9
2024-05-09T21:57:20.151Z,61
2024-05-09T22:00:32.316Z,61.5
2024-05-09T22:03:44.451Z,61.7
2024-05-09T22:06:56.611Z,61.6
2024-05-09T22:10:08.758Z,61.7
2024-05-09T22:13:20.902Z,61.9
2024-05-09T22:16:33.046Z,61.8
2024-05-09T22:19:45.210Z,62.1
2024-05-09T22:22:57.346Z,62.3
2024-05-09T22:26:09.506Z,62.5
2024-05-09T22:29:20.679Z,63
2024-05-09T22:32:32.823Z,63.4
2024-05-09T22:35:44.972Z,63.8
2024-05-09T22:38:57.112Z,64
2024-05-09T22:42:09.277Z,64.2
2024-05-09T22:45:21.419Z,64.8
2024-05-09T22:48:33.574Z,64.8
2024-05-09T22:51:45.710Z,65.1
2024-05-09T22:54:57.874Z,65.3
2024-05-09T22:58:10.022Z,65.6
2024-05-09T23:01:22.161Z,65.7
2024-05-09T23:04:34.312Z,66.1
2024-05-09T23:07:46.466Z,66.3
2024-05-09T23:10:57.636Z,66.7
2024-05-09T23:14:09.782Z,66.8
2024-05-09T23:17:21.925Z,67
2024-05-09T23:20:34.095Z,67.3
2024-05-09T23:23:46.244Z,67.5
2024-05-09T23:26:58.377Z,67.6
2024-05-09T23:30:10.538Z,67.8
2024-05-09T23:33:22.687Z,67.9
2024-05-09T23:36:34.847Z,68
2024-05-09T23:39:46.994Z,68.3
2024-05-09T23:42:59.151Z,68.4
2024-05-09T23:46:11.298Z,68.5
2024-05-09T23:49:23.436Z,69
2024-05-09T23:52:34.606Z,69
2024-05-09T23:55:46.762Z,68.8
2024-05-09T23:58:58.908Z,68.8
